sensor_id;sensor_type;location;lat;lon;timestamp;pressure;altitude;pressure_sealevel;temperature;humidity
29549;BME280;16487;53.094;8.800;2023-03-04T00:01:35;101492.59;;;5.97;100.00
29549;BME280;16487;53.094;8.800;2023-03-04T00:04:03;101502.88;;;5.93;100.00
29549;BME280;16487;53.094;8.800;2023-03-04T00:06:30;101508.41;;;5.97;100.00
29549;BME280;16487;53.094;8.800;2023-03-04T00:09:00;101511.56;;;5.95;100.00
29549;BME280;16487;53.094;8.800;2023-03-04T00:11:33;101512.34;;;5.99;100.00
29549;BME280;16487;53.094;8.800;2023-03-04T00:14:03;101508.41;;;6.00;100.00
29549;BME280;16487;53.094;8.800;2023-03-04T00:16:30;101507.63;;;6.03;100.00
29549;BME280;16487;53.094;8.800;2023-03-04T00:19:02;101506.81;;;6.10;100.00
29549;BME280;16487;53.094;8.800;2023-03-04T00:21:30;101500.53;;;6.06;100.00
29549;BME280;16487;53.094;8.800;2023-03-04T00:23:57;101494.19;;;6.12;100.00
29549;BME280;16487;53.094;8.800;2023-03-04T00:26:24;101489.84;;;6.11;100.00
29549;BME280;16487;53.094;8.800;2023-03-04T00:28:51;101488.66;;;6.19;100.00
29549;BME280;16487;53.094;8.800;2023-03-04T00:31:21;101479.97;;;6.17;100.00
29549;BME280;16487;53.094;8.800;2023-03-04T00:33:48;101488.25;;;6.17;100.00
29549;BME280;16487;53.094;8.800;2023-03-04T00:36:16;101480.75;;;6.21;100.00
29549;BME280;16487;53.094;8.800;2023-03-04T00:38:43;101488.66;;;6.19;100.00
29549;BME280;16487;53.094;8.800;2023-03-04T00:41:10;101473.22;;;6.15;100.00
29549;BME280;16487;53.094;8.800;2023-03-04T00:43:37;101475.22;;;6.21;100.00
29549;BME280;16487;53.094;8.800;2023-03-04T00:46:05;101464.16;;;6.21;100.00
29549;BME280;16487;53.094;8.800;2023-03-04T00:48:33;101461.78;;;6.20;100.00
29549;BME280;16487;53.094;8.800;2023-03-04T00:51:00;101467.31;;;6.20;100.00
29549;BME280;16487;53.094;8.800;2023-03-04T00:53:28;101460.19;;;6.15;100.00
29549;BME280;16487;53.094;8.800;2023-03-04T00:55:55;101472.84;;;6.23;100.00
29549;BME280;16487;53.094;8.800;2023-03-04T00:58:22;101460.19;;;6.22;100.00
29549;BME280;16487;53.094;8.800;2023-03-04T01:00:50;101464.94;;;6.18;100.00
29549;BME280;16487;53.094;8.800;2023-03-04T01:03:17;101462.16;;;6.18;100.00
29549;BME280;16487;53.094;8.800;2023-03-04T01:05:46;101465.31;;;6.17;100.00
29549;BME280;16487;53.094;8.800;2023-03-04T01:08:13;101450.72;;;6.16;100.00
29549;BME280;16487;53.094;8.800;2023-03-04T01:10:41;101450.31;;;6.21;100.00
29549;BME280;16487;53.094;8.800;2023-03-04T01:13:08;101436.47;;;6.21;100.00
29549;BME280;16487;53.094;8.800;2023-03-04T01:15:35;101432.50;;;6.22;100.00
29549;BME280;16487;53.094;8.800;2023-03-04T01:18:04;101421.44;;;6.26;100.00
29549;BME280;16487;53.094;8.800;2023-03-04T01:20:32;101402.06;;;6.29;100.00
29549;BME280;16487;53.094;8.800;2023-03-04T01:23:01;101402.47;;;6.24;100.00
29549;BME280;16487;53.094;8.800;2023-03-04T01:25:28;101390.19;;;6.25;100.00
29549;BME280;16487;53.094;8.800;2023-03-04T01:27:55;101394.97;;;6.21;100.00
29549;BME280;16487;53.094;8.800;2023-03-04T01:30:22;101397.72;;;6.21;100.00
29549;BME280;16487;53.094;8.800;2023-03-04T01:32:50;101389.81;;;6.23;100.00
29549;BME280;16487;53.094;8.800;2023-03-04T01:35:17;101377.97;;;6.19;100.00
29549;BME280;16487;53.094;8.800;2023-03-04T01:37:44;101383.09;;;6.17;100.00
29549;BME280;16487;53.094;8.800;2023-03-04T01:40:13;101390.19;;;6.22;100.00
29549;BME280;16487;53.094;8.800;2023-03-04T01:42:41;101394.56;;;6.16;100.00
29549;BME280;16487;53.094;8.800;2023-03-04T01:45:12;101408.81;;;6.11;100.00
29549;BME280;16487;53.094;8.800;2023-03-04T01:47:43;101413.53;;;6.07;100.00
29549;BME280;16487;53.094;8.800;2023-03-04T01:50:18;101423.81;;;6.13;100.00
29549;BME280;16487;53.094;8.800;2023-03-04T01:52:45;101412.75;;;6.06;100.00
29549;BME280;16487;53.094;8.800;2023-03-04T01:55:17;101419.06;;;6.03;100.00
29549;BME280;16487;53.094;8.800;2023-03-04T01:57:49;101406.44;;;6.09;100.00
29549;BME280;16487;53.094;8.800;2023-03-04T02:00:21;101396.13;;;6.10;100.00
29549;BME280;16487;53.094;8.800;2023-03-04T02:02:56;101377.97;;;6.09;100.00
29549;BME280;16487;53.094;8.800;2023-03-04T02:05:24;101372.44;;;6.09;100.00
29549;BME280;16487;53.094;8.800;2023-03-04T02:07:56;101338.81;;;6.14;100.00
29549;BME280;16487;53.094;8.800;2023-03-04T02:10:27;101321.81;;;6.22;100.00
29549;BME280;16487;53.094;8.800;2023-03-04T02:12:57;101293.34;;;6.18;100.00
29549;BME280;16487;53.094;8.800;2023-03-04T02:15:26;101279.09;;;6.27;100.00
29549;BME280;16487;53.094;8.800;2023-03-04T02:17:54;101275.16;;;6.21;100.00
29549;BME280;16487;53.094;8.800;2023-03-04T02:20:32;101255.38;;;6.26;100.00
29549;BME280;16487;53.094;8.800;2023-03-04T02:23:13;101253.44;;;6.19;100.00
29549;BME280;16487;53.094;8.800;2023-03-04T02:25:45;101248.28;;;6.18;100.00
29549;BME280;16487;53.094;8.800;2023-03-04T02:28:15;101264.88;;;6.21;100.00
29549;BME280;16487;53.094;8.800;2023-03-04T02:30:43;101272.00;;;6.15;100.00
29549;BME280;16487;53.094;8.800;2023-03-04T02:33:15;101295.75;;;6.09;100.00
29549;BME280;16487;53.094;8.800;2023-03-04T02:35:43;101330.13;;;6.05;100.00
29549;BME280;16487;53.094;8.800;2023-03-04T02:38:15;101358.22;;;5.96;100.00
29549;BME280;16487;53.094;8.800;2023-03-04T02:40:46;101408.00;;;5.89;100.00
29549;BME280;16487;53.094;8.800;2023-03-04T02:43:19;101434.88;;;5.78;100.00
29549;BME280;16487;53.094;8.800;2023-03-04T02:45:47;101467.63;;;5.72;100.00
29549;BME280;16487;53.094;8.800;2023-03-04T02:48:19;101496.88;;;5.77;100.00
29549;BME280;16487;53.094;8.800;2023-03-04T02:50:52;101509.13;;;5.72;100.00
29549;BME280;16487;53.094;8.800;2023-03-04T02:53:20;101523.34;;;5.74;100.00
29549;BME280;16487;53.094;8.800;2023-03-04T02:55:53;101546.63;;;5.66;100.00
29549;BME280;16487;53.094;8.800;2023-03-04T02:58:23;101558.09;;;5.72;100.00
29549;BME280;16487;53.094;8.800;2023-03-04T03:00:53;101567.97;;;5.66;100.00
29549;BME280;16487;53.094;8.800;2023-03-04T03:03:20;101571.53;;;5.70;100.00
29549;BME280;16487;53.094;8.800;2023-03-04T03:05:48;101572.31;;;5.70;100.00
29549;BME280;16487;53.094;8.800;2023-03-04T03:08:16;101575.09;;;5.74;100.00
29549;BME280;16487;53.094;8.800;2023-03-04T03:10:43;101572.31;;;5.70;100.00
29549;BME280;16487;53.094;8.800;2023-03-04T03:13:11;101578.25;;;5.72;100.00
29549;BME280;16487;53.094;8.800;2023-03-04T03:15:40;101585.75;;;5.72;100.00
29549;BME280;16487;53.094;8.800;2023-03-04T03:18:08;101581.44;;;5.74;100.00
29549;BME280;16487;53.094;8.800;2023-03-04T03:20:36;101572.00;;;5.82;100.00
29549;BME280;16487;53.094;8.800;2023-03-04T03:23:03;101566.84;;;5.81;100.00
29549;BME280;16487;53.094;8.800;2023-03-04T03:25:31;101558.16;;;5.82;100.00
29549;BME280;16487;53.094;8.800;2023-03-04T03:27:58;101545.91;;;5.83;100.00
29549;BME280;16487;53.094;8.800;2023-03-04T03:30:26;101544.69;;;5.81;100.00
29549;BME280;16487;53.094;8.800;2023-03-04T03:32:55;101537.63;;;5.87;100.00
29549;BME280;16487;53.094;8.800;2023-03-04T03:35:23;101528.16;;;5.88;100.00
29549;BME280;16487;53.094;8.800;2023-03-04T03:37:50;101517.88;;;5.85;100.00
29549;BME280;16487;53.094;8.800;2023-03-04T03:40:17;101496.91;;;5.84;100.00
29549;BME280;16487;53.094;8.800;2023-03-04T03:42:45;101484.69;;;5.85;100.00
29549;BME280;16487;53.094;8.800;2023-03-04T03:45:12;101484.69;;;5.85;100.00
29549;BME280;16487;53.094;8.800;2023-03-04T03:47:39;101477.13;;;5.82;100.00
29549;BME280;16487;53.094;8.800;2023-03-04T03:50:09;101478.31;;;5.77;100.00
29549;BME280;16487;53.094;8.800;2023-03-04T03:52:37;101485.06;;;5.87;100.00
29549;BME280;16487;53.094;8.800;2023-03-04T03:55:04;101487.00;;;5.76;100.00
29549;BME280;16487;53.094;8.800;2023-03-04T03:57:32;101496.44;;;5.68;100.00
29549;BME280;16487;53.094;8.800;2023-03-04T03:59:59;101513.03;;;5.68;100.00
29549;BME280;16487;53.094;8.800;2023-03-04T04:02:26;101519.38;;;5.65;100.00
29549;BME280;16487;53.094;8.800;2023-03-04T04:04:54;101539.09;;;5.60;100.00
29549;BME280;16487;53.094;8.800;2023-03-04T04:07:22;101552.50;;;5.51;100.00
29549;BME280;16487;53.094;8.800;2023-03-04T04:09:50;101571.06;;;5.47;100.00
29549;BME280;16487;53.094;8.800;2023-03-04T04:12:18;101591.56;;;5.46;100.00
29549;BME280;16487;53.094;8.800;2023-03-04T04:14:46;101601.44;;;5.43;100.00
29549;BME280;16487;53.094;8.800;2023-03-04T04:17:13;101616.44;;;5.42;100.00
29549;BME280;16487;53.094;8.800;2023-03-04T04:19:41;101612.13;;;5.48;100.00
29549;BME280;16487;53.094;8.800;2023-03-04T04:22:13;101611.72;;;5.50;100.00
29549;BME280;16487;53.094;8.800;2023-03-04T04:24:42;101618.06;;;5.47;100.00
29549;BME280;16487;53.094;8.800;2023-03-04T04:27:09;101627.91;;;5.48;100.00
29549;BME280;16487;53.094;8.800;2023-03-04T04:29:38;101636.16;;;5.41;100.00
29549;BME280;16487;53.094;8.800;2023-03-04T04:32:05;101645.66;;;5.40;100.00
29549;BME280;16487;53.094;8.800;2023-03-04T04:34:37;101658.66;;;5.36;100.00
29549;BME280;16487;53.094;8.800;2023-03-04T04:37:06;101670.88;;;5.31;100.00
29549;BME280;16487;53.094;8.800;2023-03-04T04:39:34;101690.19;;;5.28;100.00
29549;BME280;16487;53.094;8.800;2023-03-04T04:42:03;101705.59;;;5.29;100.00
29549;BME280;16487;53.094;8.800;2023-03-04T04:44:30;101714.22;;;5.24;100.00
29549;BME280;16487;53.094;8.800;2023-03-04T04:46:57;101736.72;;;5.22;100.00
29549;BME280;16487;53.094;8.800;2023-03-04T04:49:24;101744.22;;;5.22;100.00
29549;BME280;16487;53.094;8.800;2023-03-04T04:51:52;101755.25;;;5.22;100.00
29549;BME280;16487;53.094;8.800;2023-03-04T04:54:19;101761.53;;;5.15;100.00
29549;BME280;16487;53.094;8.800;2023-03-04T04:56:46;101781.31;;;5.21;100.00
29549;BME280;16487;53.094;8.800;2023-03-04T04:59:15;101789.97;;;5.16;100.00
29549;BME280;16487;53.094;8.800;2023-03-04T05:01:42;101796.66;;;5.15;100.00
29549;BME280;16487;53.094;8.800;2023-03-04T05:04:09;101820.75;;;5.18;100.00
29549;BME280;16487;53.094;8.800;2023-03-04T05:06:37;101816.41;;;5.17;100.00
29549;BME280;16487;53.094;8.800;2023-03-04T05:09:04;101812.84;;;5.16;100.00
29549;BME280;16487;53.094;8.800;2023-03-04T05:11:32;101819.97;;;5.17;100.00
29549;BME280;16487;53.094;8.800;2023-03-04T05:13:59;101825.13;;;5.19;100.00
29549;BME280;16487;53.094;8.800;2023-03-04T05:16:28;101829.47;;;5.20;100.00
29549;BME280;16487;53.094;8.800;2023-03-04T05:18:55;101826.69;;;5.20;100.00
29549;BME280;16487;53.094;8.800;2023-03-04T05:21:22;101837.34;;;5.18;100.00
29549;BME280;16487;53.094;8.800;2023-03-04T05:23:50;101840.44;;;5.13;100.00
29549;BME280;16487;53.094;8.800;2023-03-04T05:26:18;101858.63;;;5.14;100.00
29549;BME280;16487;53.094;8.800;2023-03-04T05:28:45;101857.03;;;5.13;100.00
29549;BME280;16487;53.094;8.800;2023-03-04T05:31:12;101870.84;;;5.13;100.00
29549;BME280;16487;53.094;8.800;2023-03-04T05:33:41;101886.97;;;5.07;100.00
29549;BME280;16487;53.094;8.800;2023-03-04T05:36:09;101885.41;;;5.10;100.00
29549;BME280;16487;53.094;8.800;2023-03-04T05:38:36;101888.94;;;5.07;100.00
29549;BME280;16487;53.094;8.800;2023-03-04T05:41:05;101894.09;;;5.08;100.00
29549;BME280;16487;53.094;8.800;2023-03-04T05:43:33;101902.75;;;5.07;100.00
29549;BME280;16487;53.094;8.800;2023-03-04T05:46:02;101924.09;;;5.10;100.00
29549;BME280;16487;53.094;8.800;2023-03-04T05:48:29;101920.91;;;5.08;100.00
29549;BME280;16487;53.094;8.800;2023-03-04T05:51:00;101916.56;;;5.07;100.00
29549;BME280;16487;53.094;8.800;2023-03-04T05:53:28;101915.44;;;5.11;100.00
29549;BME280;16487;53.094;8.800;2023-03-04T05:55:55;101922.09;;;5.07;100.00
29549;BME280;16487;53.094;8.800;2023-03-04T05:58:22;101933.63;;;5.12;100.00
29549;BME280;16487;53.094;8.800;2023-03-04T06:00:50;101934.38;;;5.13;100.00
29549;BME280;16487;53.094;8.800;2023-03-04T06:03:19;101935.22;;;5.17;100.00
29549;BME280;16487;53.094;8.800;2023-03-04T06:05:47;101949.53;;;5.22;100.00
29549;BME280;16487;53.094;8.800;2023-03-04T06:08:15;101936.91;;;5.25;100.00
29549;BME280;16487;53.094;8.800;2023-03-04T06:10:44;101958.22;;;5.24;100.00
29549;BME280;16487;53.094;8.800;2023-03-04T06:13:12;101964.19;;;5.26;100.00
29549;BME280;16487;53.094;8.800;2023-03-04T06:15:39;101974.19;;;5.38;100.00
29549;BME280;16487;53.094;8.800;2023-03-04T06:18:07;101978.84;;;5.34;100.00
29549;BME280;16487;53.094;8.800;2023-03-04T06:20:34;101996.16;;;5.27;100.00
29549;BME280;16487;53.094;8.800;2023-03-04T06:23:02;102017.03;;;5.25;100.00
29549;BME280;16487;53.094;8.800;2023-03-04T06:25:31;102035.63;;;5.24;100.00
29549;BME280;16487;53.094;8.800;2023-03-04T06:27:58;102050.63;;;5.27;100.00
29549;BME280;16487;53.094;8.800;2023-03-04T06:30:25;102064.88;;;5.29;100.00
29549;BME280;16487;53.094;8.800;2023-03-04T06:32:53;102096.84;;;5.26;100.00
29549;BME280;16487;53.094;8.800;2023-03-04T06:35:20;102111.81;;;5.25;100.00
29549;BME280;16487;53.094;8.800;2023-03-04T06:37:48;102152.56;;;5.32;100.00
29549;BME280;16487;53.094;8.800;2023-03-04T06:40:15;102171.53;;;5.33;100.00
29549;BME280;16487;53.094;8.800;2023-03-04T06:42:44;102203.19;;;5.36;100.00
29549;BME280;16487;53.094;8.800;2023-03-04T06:45:11;102235.25;;;5.40;100.00
29549;BME280;16487;53.094;8.800;2023-03-04T06:47:39;102255.44;;;5.44;100.00
29549;BME280;16487;53.094;8.800;2023-03-04T06:50:07;102287.41;;;5.42;100.00
29549;BME280;16487;53.094;8.800;2023-03-04T06:52:34;102314.38;;;5.48;100.00
29549;BME280;16487;53.094;8.800;2023-03-04T06:55:02;102341.59;;;5.46;100.00
29549;BME280;16487;53.094;8.800;2023-03-04T06:57:29;102375.16;;;5.45;100.00
29549;BME280;16487;53.094;8.800;2023-03-04T06:59:58;102402.50;;;5.50;100.00
29549;BME280;16487;53.094;8.800;2023-03-04T07:02:26;102425.75;;;5.49;100.00
29549;BME280;16487;53.094;8.800;2023-03-04T07:04:53;102454.53;;;5.44;100.00
29549;BME280;16487;53.094;8.800;2023-03-04T07:07:21;102463.25;;;5.46;100.00
29549;BME280;16487;53.094;8.800;2023-03-04T07:09:48;102491.78;;;5.50;100.00
29549;BME280;16487;53.094;8.800;2023-03-04T07:12:15;102497.47;;;5.57;100.00
29549;BME280;16487;53.094;8.800;2023-03-04T07:14:42;102506.16;;;5.59;100.00
29549;BME280;16487;53.094;8.800;2023-03-04T07:17:11;102499.09;;;5.62;100.00
29549;BME280;16487;53.094;8.800;2023-03-04T07:19:38;102501.56;;;5.67;100.00
29549;BME280;16487;53.094;8.800;2023-03-04T07:22:06;102480.97;;;5.64;100.00
29549;BME280;16487;53.094;8.800;2023-03-04T07:24:34;102463.53;;;5.60;100.00
29549;BME280;16487;53.094;8.800;2023-03-04T07:27:01;102446.25;;;5.67;100.00
29549;BME280;16487;53.094;8.800;2023-03-04T07:29:28;102422.94;;;5.68;100.00
29549;BME280;16487;53.094;8.800;2023-03-04T07:31:55;102409.06;;;5.64;100.00
29549;BME280;16487;53.094;8.800;2023-03-04T07:34:24;102397.22;;;5.64;100.00
29549;BME280;16487;53.094;8.800;2023-03-04T07:36:52;102381.41;;;5.64;100.00
29549;BME280;16487;53.094;8.800;2023-03-04T07:39:19;102366.41;;;5.65;100.00
29549;BME280;16487;53.094;8.800;2023-03-04T07:41:49;102346.69;;;5.67;100.00
29549;BME280;16487;53.094;8.800;2023-03-04T07:44:18;102334.75;;;5.63;100.00
29549;BME280;16487;53.094;8.800;2023-03-04T07:46:45;102307.97;;;5.67;100.00
29549;BME280;16487;53.094;8.800;2023-03-04T07:49:13;102285.41;;;5.65;100.00
29549;BME280;16487;53.094;8.800;2023-03-04T07:51:42;102262.44;;;5.61;100.00
29549;BME280;16487;53.094;8.800;2023-03-04T07:54:09;102234.78;;;5.61;100.00
29549;BME280;16487;53.094;8.800;2023-03-04T07:56:37;102216.25;;;5.65;100.00
29549;BME280;16487;53.094;8.800;2023-03-04T07:59:04;102187.16;;;5.74;100.00
29549;BME280;16487;53.094;8.800;2023-03-04T08:01:33;102155.13;;;5.73;100.00
29549;BME280;16487;53.094;8.800;2023-03-04T08:04:01;102125.59;;;5.81;100.00
29549;BME280;16487;53.094;8.800;2023-03-04T08:06:30;102097.84;;;5.74;100.00
29549;BME280;16487;53.094;8.800;2023-03-04T08:09:00;102063.13;;;5.76;100.00
29549;BME280;16487;53.094;8.800;2023-03-04T08:11:29;102022.41;;;5.77;100.00
29549;BME280;16487;53.094;8.800;2023-03-04T08:13:57;102001.22;;;5.88;100.00
29549;BME280;16487;53.094;8.800;2023-03-04T08:16:24;101985.69;;;5.80;100.00
29549;BME280;16487;53.094;8.800;2023-03-04T08:18:54;101950.97;;;5.82;100.00
29549;BME280;16487;53.094;8.800;2023-03-04T08:21:23;101940.38;;;5.92;100.00
29549;BME280;16487;53.094;8.800;2023-03-04T08:23:51;101916.66;;;5.94;100.00
29549;BME280;16487;53.094;8.800;2023-03-04T08:26:23;101907.97;;;5.92;100.00
29549;BME280;16487;53.094;8.800;2023-03-04T08:28:51;101887.78;;;5.88;100.00
29549;BME280;16487;53.094;8.800;2023-03-04T08:31:19;101875.16;;;5.94;100.00
29549;BME280;16487;53.094;8.800;2023-03-04T08:33:46;101861.72;;;5.93;100.00
29549;BME280;16487;53.094;8.800;2023-03-04T08:36:14;101845.19;;;6.03;100.00
29549;BME280;16487;53.094;8.800;2023-03-04T08:38:42;101841.25;;;6.04;100.00
29549;BME280;16487;53.094;8.800;2023-03-04T08:41:09;101836.47;;;6.01;100.00
29549;BME280;16487;53.094;8.800;2023-03-04T08:43:38;101832.63;;;6.16;100.00
29549;BME280;16487;53.094;8.800;2023-03-04T08:46:06;101802.56;;;6.11;100.00
29549;BME280;16487;53.094;8.800;2023-03-04T08:48:34;101791.50;;;6.11;100.00
29549;BME280;16487;53.094;8.800;2023-03-04T08:51:06;101767.41;;;6.19;100.00
29549;BME280;16487;53.094;8.800;2023-03-04T08:53:34;101739.75;;;6.22;100.00
29549;BME280;16487;53.094;8.800;2023-03-04T08:56:01;101713.28;;;6.28;100.00
29549;BME280;16487;53.094;8.800;2023-03-04T08:58:29;101691.56;;;6.51;100.00
29549;BME280;16487;53.094;8.800;2023-03-04T09:00:58;101657.94;;;6.35;100.00
29549;BME280;16487;53.094;8.800;2023-03-04T09:03:26;101625.09;;;6.37;100.00
29549;BME280;16487;53.094;8.800;2023-03-04T09:05:54;101596.66;;;6.44;100.00
29549;BME280;16487;53.094;8.800;2023-03-04T09:08:22;101583.50;;;5.95;100.00
29549;BME280;16487;53.094;8.800;2023-03-04T09:10:51;101590.13;;;5.73;100.00
29549;BME280;16487;53.094;8.800;2023-03-04T09:13:19;101605.44;;;5.56;100.00
29549;BME280;16487;53.094;8.800;2023-03-04T09:15:48;101616.41;;;5.39;100.00
29549;BME280;16487;53.094;8.800;2023-03-04T09:18:18;101642.16;;;5.50;100.00
29549;BME280;16487;53.094;8.800;2023-03-04T09:20:46;101637.88;;;5.70;100.00
29549;BME280;16487;53.094;8.800;2023-03-04T09:23:14;101638.75;;;5.81;100.00
29549;BME280;16487;53.094;8.800;2023-03-04T09:25:42;101633.22;;;5.81;100.00
29549;BME280;16487;53.094;8.800;2023-03-04T09:28:11;101622.69;;;6.18;100.00
29549;BME280;16487;53.094;8.800;2023-03-04T09:30:38;101606.53;;;6.59;100.00
29549;BME280;16487;53.094;8.800;2023-03-04T09:33:07;101574.06;;;6.87;100.00
29549;BME280;16487;53.094;8.800;2023-03-04T09:35:36;101526.19;;;6.83;100.00
29549;BME280;16487;53.094;8.800;2023-03-04T09:38:03;101522.22;;;6.84;100.00
29549;BME280;16487;53.094;8.800;2023-03-04T09:40:35;101504.00;;;6.97;100.00
29549;BME280;16487;53.094;8.800;2023-03-04T09:43:05;101495.78;;;6.34;100.00
29549;BME280;16487;53.094;8.800;2023-03-04T09:45:46;101486.28;;;6.14;100.00
29549;BME280;16487;53.094;8.800;2023-03-04T09:48:20;101484.31;;;6.11;100.00
29549;BME280;16487;53.094;8.800;2023-03-04T09:50:58;101481.16;;;6.16;100.00
29549;BME280;16487;53.094;8.800;2023-03-04T09:53:33;101470.44;;;6.43;100.00
29549;BME280;16487;53.094;8.800;2023-03-04T09:56:05;101444.38;;;6.19;100.00
29549;BME280;16487;53.094;8.800;2023-03-04T09:58:41;101422.97;;;6.41;100.00
29549;BME280;16487;53.094;8.800;2023-03-04T10:01:19;101402.41;;;6.52;100.00
29549;BME280;16487;53.094;8.800;2023-03-04T10:03:51;101389.69;;;6.65;100.00
29549;BME280;16487;53.094;8.800;2023-03-04T10:06:22;101361.88;;;6.97;100.00
29549;BME280;16487;53.094;8.800;2023-03-04T10:08:53;101335.44;;;6.85;100.00
29549;BME280;16487;53.094;8.800;2023-03-04T10:11:26;101301.50;;;6.60;100.00
29549;BME280;16487;53.094;8.800;2023-03-04T10:14:01;101323.03;;;6.14;100.00
29549;BME280;16487;53.094;8.800;2023-03-04T10:16:33;101350.31;;;6.09;100.00
29549;BME280;16487;53.094;8.800;2023-03-04T10:19:20;101372.44;;;5.95;100.00
29549;BME280;16487;53.094;8.800;2023-03-04T10:21:51;101388.97;;;6.58;100.00
29549;BME280;16487;53.094;8.800;2023-03-04T10:24:20;101376.56;;;6.90;100.00
29549;BME280;16487;53.094;8.800;2023-03-04T10:26:51;101358.59;;;7.20;100.00
29549;BME280;16487;53.094;8.800;2023-03-04T10:29:22;101350.84;;;6.86;100.00
29549;BME280;16487;53.094;8.800;2023-03-04T10:31:50;101354.03;;;6.81;100.00
29549;BME280;16487;53.094;8.800;2023-03-04T10:34:18;101366.06;;;6.29;100.00
29549;BME280;16487;53.094;8.800;2023-03-04T10:36:54;101413.53;;;5.93;100.00
29549;BME280;16487;53.094;8.800;2023-03-04T10:39:26;101454.97;;;5.50;100.00
29549;BME280;16487;53.094;8.800;2023-03-04T10:41:59;101514.19;;;5.53;100.00
29549;BME280;16487;53.094;8.800;2023-03-04T10:44:27;101536.72;;;5.58;100.00
29549;BME280;16487;53.094;8.800;2023-03-04T10:46:57;101557.63;;;5.56;100.00
29549;BME280;16487;53.094;8.800;2023-03-04T10:49:25;101554.66;;;6.03;100.00
29549;BME280;16487;53.094;8.800;2023-03-04T10:52:01;101528.56;;;6.78;100.00
29549;BME280;16487;53.094;8.800;2023-03-04T10:54:30;101510.75;;;6.72;100.00
29549;BME280;16487;53.094;8.800;2023-03-04T10:57:03;101489.78;;;6.74;100.00
29549;BME280;16487;53.094;8.800;2023-03-04T10:59:39;101463.97;;;7.06;100.00
29549;BME280;16487;53.094;8.800;2023-03-04T11:02:21;101422.66;;;7.36;100.00
29549;BME280;16487;53.094;8.800;2023-03-04T11:05:04;101382.09;;;7.59;100.00
29549;BME280;16487;53.094;8.800;2023-03-04T11:07:38;101354.88;;;7.40;100.00
29549;BME280;16487;53.094;8.800;2023-03-04T11:10:22;101332.88;;;7.16;100.00
29549;BME280;16487;53.094;8.800;2023-03-04T11:12:54;101323.63;;;6.67;100.00
29549;BME280;16487;53.094;8.800;2023-03-04T11:15:26;101335.97;;;6.52;100.00
29549;BME280;16487;53.094;8.800;2023-03-04T11:17:56;101337.53;;;6.46;100.00
29549;BME280;16487;53.094;8.800;2023-03-04T11:20:31;101304.16;;;6.85;100.00
29549;BME280;16487;53.094;8.800;2023-03-04T11:23:04;101277.75;;;7.25;100.00
29549;BME280;16487;53.094;8.800;2023-03-04T11:25:34;101224.88;;;7.86;100.00
29549;BME280;16487;53.094;8.800;2023-03-04T11:28:11;101161.47;;;7.85;100.00
29549;BME280;16487;53.094;8.800;2023-03-04T11:30:42;101087.59;;;7.98;100.00
29549;BME280;16487;53.094;8.800;2023-03-04T11:33:15;101037.28;;;8.72;100.00
29549;BME280;16487;53.094;8.800;2023-03-04T11:35:49;101019.63;;;8.82;100.00
29549;BME280;16487;53.094;8.800;2023-03-04T11:38:23;101014.31;;;8.19;100.00
29549;BME280;16487;53.094;8.800;2023-03-04T11:40:56;101031.75;;;7.62;100.00
29549;BME280;16487;53.094;8.800;2023-03-04T11:43:29;101038.91;;;6.96;100.00
29549;BME280;16487;53.094;8.800;2023-03-04T11:49:49;101021.31;;;7.10;100.00
29549;BME280;16487;53.094;8.800;2023-03-04T11:52:29;100988.78;;;7.47;100.00
29549;BME280;16487;53.094;8.800;2023-03-04T11:55:17;100970.06;;;7.55;100.00
29549;BME280;16487;53.094;8.800;2023-03-04T11:57:58;100954.66;;;7.80;100.00
29549;BME280;16487;53.094;8.800;2023-03-04T12:00:35;100949.84;;;7.81;100.00
29549;BME280;16487;53.094;8.800;2023-03-04T12:03:24;100954.28;;;8.28;100.00
29549;BME280;16487;53.094;8.800;2023-03-04T12:05:58;100915.56;;;8.83;100.00
29549;BME280;16487;53.094;8.800;2023-03-04T12:08:42;100906.03;;;8.42;100.00
29549;BME280;16487;53.094;8.800;2023-03-04T12:11:20;100915.53;;;7.98;100.00
29549;BME280;16487;53.094;8.800;2023-03-04T12:14:01;100925.94;;;7.37;100.00
29549;BME280;16487;53.094;8.800;2023-03-04T12:16:49;101013.63;;;6.46;100.00
29549;BME280;16487;53.094;8.800;2023-03-04T12:19:29;101122.88;;;6.31;100.00
29549;BME280;16487;53.094;8.800;2023-03-04T12:22:23;101219.78;;;6.24;100.00
29549;BME280;16487;53.094;8.800;2023-03-04T12:27:58;101280.00;;;5.85;100.00
29549;BME280;16487;53.094;8.800;2023-03-04T12:30:42;101291.78;;;6.14;100.00
29549;BME280;16487;53.094;8.800;2023-03-04T12:33:22;101278.09;;;6.68;100.00
29549;BME280;16487;53.094;8.800;2023-03-04T12:36:01;101231.31;;;6.88;100.00
29549;BME280;16487;53.094;8.800;2023-03-04T12:38:47;101186.22;;;6.80;100.00
29549;BME280;16487;53.094;8.800;2023-03-04T12:41:24;101138.03;;;6.71;100.00
29549;BME280;16487;53.094;8.800;2023-03-04T12:44:05;101103.03;;;6.91;100.00
29549;BME280;16487;53.094;8.800;2023-03-04T12:46:40;101090.16;;;7.15;100.00
29549;BME280;16487;53.094;8.800;2023-03-04T12:49:20;101056.66;;;6.98;100.00
29549;BME280;16487;53.094;8.800;2023-03-04T12:51:55;101054.22;;;7.41;100.00
29549;BME280;16487;53.094;8.800;2023-03-04T12:54:30;101034.41;;;7.43;100.00
29549;BME280;16487;53.094;8.800;2023-03-04T12:57:01;101006.16;;;7.21;100.00
29549;BME280;16487;53.094;8.800;2023-03-04T12:59:35;101016.41;;;7.24;100.00
29549;BME280;16487;53.094;8.800;2023-03-04T13:04:59;101040.94;;;6.44;100.00
29549;BME280;16487;53.094;8.800;2023-03-04T13:07:37;101052.66;;;6.62;100.00
29549;BME280;16487;53.094;8.800;2023-03-04T13:10:10;101058.91;;;6.73;100.00
29549;BME280;16487;53.094;8.800;2023-03-04T13:12:49;101048.63;;;6.70;100.00
29549;BME280;16487;53.094;8.800;2023-03-04T13:15:28;101033.69;;;6.61;100.00